createdAt,value
2022-12-09T00:00:21.197Z,72.70
2022-12-09T00:02:47.830Z,72.97
2022-12-09T00:05:14.789Z,73.13
2022-12-09T00:07:41.191Z,73.42
2022-12-09T00:10:08.374Z,73.41
2022-12-09T00:12:35.160Z,73.09
2022-12-09T00:15:01.539Z,73.85
2022-12-09T00:17:28.205Z,73.48
2022-12-09T00:19:54.768Z,73.83
2022-12-09T00:22:21.167Z,73.69
2022-12-09T00:24:47.552Z,73.35
2022-12-09T00:27:13.998Z,73.12
2022-12-09T00:29:40.544Z,73.15
2022-12-09T00:32:07.080Z,73.73
2022-12-09T00:34:33.576Z,74.39
2022-12-09T00:37:00.114Z,74.69
2022-12-09T00:39:26.597Z,74.18
2022-12-09T00:41:53.006Z,73.93
2022-12-09T00:44:19.493Z,74.58
2022-12-09T00:46:46.030Z,74.41
2022-12-09T00:49:12.681Z,74.01
2022-12-09T00:51:39.168Z,74.43
2022-12-09T00:54:05.651Z,74.80
2022-12-09T00:56:32.377Z,74.40
2022-12-09T00:58:59.322Z,74.41
2022-12-09T01:01:26.676Z,74.64
2022-12-09T01:03:53.535Z,74.59
2022-12-09T01:06:23.798Z,74.20
2022-12-09T01:08:50.837Z,73.45
2022-12-09T01:11:27.014Z,73.82
2022-12-09T01:13:54.690Z,73.35
2022-12-09T01:16:26.596Z,73.24
2022-12-09T01:18:55.258Z,73.37
2022-12-09T01:21:21.715Z,73.35
2022-12-09T01:23:48.073Z,74.08
2022-12-09T01:26:14.416Z,73.93
2022-12-09T01:28:41.012Z,74.52
2022-12-09T01:31:10.271Z,74.68
2022-12-09T01:33:37.066Z,74.23
2022-12-09T01:36:09.741Z,73.40
2022-12-09T01:38:36.361Z,73.54
2022-12-09T01:41:03.311Z,73.43
2022-12-09T01:43:30.016Z,73.75
2022-12-09T01:45:56.830Z,74.01
2022-12-09T01:48:35.014Z,74.55
2022-12-09T01:51:19.005Z,74.31
2022-12-09T01:53:49.574Z,74.42
2022-12-09T01:56:29.378Z,73.82
2022-12-09T01:59:02.416Z,74.25
2022-12-09T02:01:29.315Z,74.15
2022-12-09T02:03:56.217Z,73.88
2022-12-09T02:06:22.799Z,73.80
2022-12-09T02:08:50.786Z,73.47
2022-12-09T02:11:26.615Z,73.38
2022-12-09T02:14:24.383Z,73.70
2022-12-09T02:17:09.420Z,73.61
2022-12-09T02:20:01.516Z,74.07
2022-12-09T02:22:34.655Z,73.82
2022-12-09T02:25:30.428Z,73.39
2022-12-09T02:28:15.624Z,73.32
2022-12-09T02:31:26.463Z,73.30
2022-12-09T02:34:17.403Z,74.19
2022-12-09T02:37:02.570Z,74.12
2022-12-09T02:39:53.044Z,74.29
2022-12-09T02:42:22.882Z,74.68
2022-12-09T02:44:51.583Z,74.06
2022-12-09T02:47:21.240Z,74.54
2022-12-09T02:49:51.845Z,73.88
2022-12-09T02:52:19.474Z,74.86
2022-12-09T02:54:47.002Z,75.29
2022-12-09T02:57:24.060Z,75.02
2022-12-09T02:59:50.714Z,74.89
2022-12-09T03:02:28.351Z,75.26
2022-12-09T03:05:28.752Z,75.21
2022-12-09T03:08:23.160Z,74.95
2022-12-09T03:11:07.617Z,74.54
2022-12-09T03:13:42.894Z,74.97
2022-12-09T03:16:18.432Z,76.26
2022-12-09T03:18:50.749Z,76.09
2022-12-09T03:21:20.941Z,76.03
2022-12-09T03:23:50.149Z,75.34
2022-12-09T03:26:17.988Z,75.61
2022-12-09T03:28:49.239Z,75.70
2022-12-09T03:31:19.868Z,75.75
2022-12-09T03:33:49.118Z,75.66
2022-12-09T03:36:18.449Z,75.58
2022-12-09T03:38:48.439Z,75.95
2022-12-09T03:41:24.263Z,76.09
2022-12-09T03:43:55.446Z,75.99
2022-12-09T03:46:23.181Z,76.26
2022-12-09T03:48:50.112Z,76.56
2022-12-09T03:51:21.129Z,76.55
2022-12-09T03:53:55.970Z,76.34
2022-12-09T03:56:27.564Z,76.71
2022-12-09T03:58:56.607Z,76.05
2022-12-09T04:01:25.305Z,76.47
2022-12-09T04:03:54.525Z,76.56
2022-12-09T04:06:21.886Z,76.28
2022-12-09T04:08:48.607Z,76.15
2022-12-09T04:11:15.315Z,76.31
2022-12-09T04:13:41.890Z,76.61
2022-12-09T04:16:09.468Z,76.61
2022-12-09T04:18:35.989Z,76.47
2022-12-09T04:21:07.329Z,76.38
2022-12-09T04:23:37.886Z,75.89
2022-12-09T04:26:08.120Z,76.19
2022-12-09T04:28:34.463Z,75.93
2022-12-09T04:31:01.036Z,76.32
2022-12-09T04:33:27.755Z,75.90
2022-12-09T04:35:54.518Z,76.14
2022-12-09T04:38:20.892Z,76.34
2022-12-09T04:40:47.517Z,75.95
2022-12-09T04:43:13.980Z,76.06
2022-12-09T04:45:40.666Z,76.40
2022-12-09T04:48:07.707Z,75.93
2022-12-09T04:50:34.175Z,76.08
2022-12-09T04:53:00.614Z,76.17
2022-12-09T04:55:27.439Z,76.64
2022-12-09T04:57:54.261Z,76.42
2022-12-09T05:00:21.226Z,77.12
2022-12-09T05:02:47.742Z,77.10
2022-12-09T05:05:14.997Z,77.04
2022-12-09T05:07:42.173Z,76.75
2022-12-09T05:10:09.882Z,76.47
2022-12-09T05:12:37.168Z,76.14
2022-12-09T05:15:04.031Z,76.08
2022-12-09T05:17:30.688Z,76.16
2022-12-09T05:19:57.577Z,76.42
2022-12-09T05:22:27.244Z,76.50
2022-12-09T05:24:53.696Z,75.83
2022-12-09T05:27:20.247Z,75.55
2022-12-09T05:29:47.569Z,75.94
2022-12-09T05:32:14.598Z,75.36
2022-12-09T05:34:41.314Z,74.88
2022-12-09T05:37:07.869Z,75.45
2022-12-09T05:39:34.978Z,75.44
2022-12-09T05:42:01.833Z,75.81
2022-12-09T05:44:28.512Z,75.53
2022-12-09T05:46:55.102Z,75.61
2022-12-09T05:49:22.120Z,75.63
2022-12-09T05:51:49.050Z,75.37
2022-12-09T05:54:18.785Z,75.59
2022-12-09T05:56:48.317Z,75.48
2022-12-09T05:59:15.717Z,76.16
2022-12-09T06:01:42.257Z,75.71
2022-12-09T06:04:09.353Z,75.64
2022-12-09T06:06:36.247Z,75.92
2022-12-09T06:09:03.740Z,76.18
2022-12-09T06:14:12.704Z,76.25
2022-12-09T06:16:44.777Z,76.25
2022-12-09T06:19:12.367Z,76.17
2022-12-09T06:21:40.912Z,75.85
2022-12-09T06:24:08.648Z,76.04
2022-12-09T06:26:35.557Z,76.20
2022-12-09T06:29:02.428Z,75.87
2022-12-09T06:31:30.237Z,76.12
2022-12-09T06:33:58.426Z,75.85
2022-12-09T06:36:35.648Z,76.26
2022-12-09T06:39:10.024Z,76.36
2022-12-09T06:41:40.215Z,76.38
2022-12-09T06:44:06.840Z,76.48
2022-12-09T06:46:33.792Z,76.14
2022-12-09T06:49:00.418Z,76.35
2022-12-09T06:51:30.100Z,75.87
2022-12-09T06:53:56.695Z,76.11
2022-12-09T06:56:36.249Z,76.21
2022-12-09T06:59:07.180Z,76.20
2022-12-09T07:01:35.127Z,76.62
2022-12-09T07:04:04.309Z,76.34
2022-12-09T07:06:39.556Z,76.61
2022-12-09T07:09:36.272Z,76.05
2022-12-09T07:12:03.600Z,76.40
2022-12-09T07:14:30.124Z,76.11
2022-12-09T07:16:56.653Z,76.14
2022-12-09T07:19:23.987Z,75.89
2022-12-09T07:21:51.700Z,75.88
2022-12-09T07:24:19.288Z,76.42
2022-12-09T07:26:47.004Z,75.71
2022-12-09T07:29:13.581Z,76.26
2022-12-09T07:31:40.620Z,75.63
2022-12-09T07:34:07.631Z,75.39
2022-12-09T07:36:35.773Z,75.54
2022-12-09T07:39:05.739Z,75.98
2022-12-09T07:41:32.548Z,75.88
2022-12-09T07:43:59.224Z,76.09
2022-12-09T07:46:29.718Z,76.18
2022-12-09T07:48:57.617Z,75.95
2022-12-09T07:51:25.143Z,76.68
2022-12-09T07:53:51.859Z,76.47
2022-12-09T07:56:19.626Z,75.98
2022-12-09T07:58:48.051Z,76.22
2022-12-09T08:01:20.494Z,76.24
2022-12-09T08:03:48.548Z,76.13
2022-12-09T08:06:20.456Z,75.69
2022-12-09T08:08:48.217Z,75.48
2022-12-09T08:11:18.158Z,75.77
2022-12-09T08:13:48.260Z,75.85
2022-12-09T08:16:16.815Z,76.03
2022-12-09T08:18:45.622Z,76.06
2022-12-09T08:21:16.724Z,76.23
2022-12-09T08:23:44.098Z,76.01
2022-12-09T08:26:12.942Z,76.22
2022-12-09T08:31:56.864Z,75.69
2022-12-09T08:34:23.386Z,75.01
2022-12-09T08:36:50.310Z,75.36
2022-12-09T08:39:16.933Z,75.51
2022-12-09T08:41:44.578Z,74.69
2022-12-09T08:44:17.192Z,75.47
2022-12-09T08:46:49.305Z,74.84
2022-12-09T08:49:18.896Z,74.84
2022-12-09T08:51:47.451Z,73.64
2022-12-09T08:54:13.979Z,74.16
2022-12-09T08:56:44.779Z,73.81
2022-12-09T08:59:11.167Z,74.01
2022-12-09T09:01:37.585Z,74.27
2022-12-09T09:04:08.135Z,74.57
2022-12-09T09:06:37.353Z,74.39
2022-12-09T09:09:06.091Z,73.99
2022-12-09T09:11:33.737Z,73.87
2022-12-09T09:14:04.146Z,74.40
2022-12-09T09:16:30.745Z,74.40
2022-12-09T09:18:58.269Z,74.59
2022-12-09T09:21:27.799Z,74.13
2022-12-09T09:23:54.874Z,74.26
2022-12-09T09:26:23.962Z,74.52
2022-12-09T09:28:53.762Z,74.20
2022-12-09T09:31:29.122Z,74.34
2022-12-09T09:33:56.374Z,74.06
2022-12-09T09:36:24.810Z,73.06
2022-12-09T09:39:00.203Z,72.67
2022-12-09T09:41:55.502Z,72.99
2022-12-09T09:44:42.007Z,72.93
2022-12-09T09:47:34.750Z,72.73
2022-12-09T09:50:18.216Z,73.01
2022-12-09T09:52:45.381Z,72.53
2022-12-09T09:55:18.370Z,72.05
2022-12-09T09:57:57.554Z,71.89
2022-12-09T10:00:38.247Z,71.77
2022-12-09T10:03:53.599Z,71.40
2022-12-09T10:06:30.029Z,71.34
2022-12-09T10:09:07.026Z,70.95
2022-12-09T10:11:55.268Z,71.24
2022-12-09T10:14:51.312Z,69.89
2022-12-09T10:17:29.011Z,69.78
2022-12-09T10:20:05.068Z,69.64
2022-12-09T10:22:44.957Z,68.02
2022-12-09T10:25:26.684Z,68.18
2022-12-09T10:28:26.960Z,68.95
2022-12-09T10:30:55.632Z,69.06
2022-12-09T10:33:41.025Z,68.18
2022-12-09T10:36:22.145Z,68.01
2022-12-09T10:38:48.769Z,67.73
2022-12-09T10:42:10.563Z,68.69
2022-12-09T10:44:38.206Z,68.25
2022-12-09T10:47:28.241Z,69.25
2022-12-09T10:49:55.638Z,68.74
2022-12-09T10:52:25.695Z,67.63
2022-12-09T10:54:52.996Z,66.81
2022-12-09T10:57:19.617Z,66.51
2022-12-09T10:59:59.491Z,64.82
2022-12-09T11:02:26.403Z,63.93
2022-12-09T11:04:54.712Z,63.53
2022-12-09T11:07:27.154Z,62.19
2022-12-09T11:09:56.950Z,61.68
2022-12-09T11:12:27.389Z,62.19
2022-12-09T11:14:59.791Z,62.19
2022-12-09T11:17:36.013Z,62.20
2022-12-09T11:20:05.756Z,61.74
2022-12-09T11:22:41.204Z,61.36
2022-12-09T11:25:11.143Z,60.51
2022-12-09T11:27:41.486Z,59.92
2022-12-09T11:30:29.133Z,59.62
2022-12-09T11:32:59.063Z,58.74
2022-12-09T11:35:44.907Z,59.86
2022-12-09T11:38:45.378Z,60.88
2022-12-09T11:41:53.729Z,61.04
2022-12-09T11:44:44.312Z,61.24
2022-12-09T11:47:13.676Z,62.56
2022-12-09T11:49:54.506Z,62.21
2022-12-09T11:52:25.335Z,61.75
2022-12-09T11:55:05.884Z,62.16
2022-12-09T11:57:38.127Z,61.84
2022-12-09T12:00:16.269Z,60.33
2022-12-09T12:03:15.001Z,60.88
2022-12-09T12:05:43.452Z,61.25
2022-12-09T12:08:22.233Z,62.35
2022-12-09T12:11:17.904Z,61.84
2022-12-09T12:13:48.428Z,63.17
2022-12-09T12:16:26.081Z,62.67
2022-12-09T12:19:09.858Z,63.04
2022-12-09T12:22:09.436Z,63.65
2022-12-09T12:24:50.966Z,64.05
2022-12-09T12:27:37.345Z,63.69
2022-12-09T12:30:09.527Z,63.11
2022-12-09T12:33:11.874Z,63.08
2022-12-09T12:35:54.331Z,63.70
2022-12-09T12:38:42.473Z,64.09
2022-12-09T12:41:08.717Z,63.59
2022-12-09T12:44:00.173Z,62.98
2022-12-09T12:46:59.686Z,62.52
2022-12-09T12:50:00.612Z,62.05
2022-12-09T12:52:55.589Z,63.00
2022-12-09T12:55:50.950Z,63.37
2022-12-09T12:58:58.259Z,63.99
2022-12-09T13:01:30.794Z,63.05
2022-12-09T13:04:42.302Z,63.90
2022-12-09T13:07:21.845Z,63.26
2022-12-09T13:10:03.351Z,61.80
2022-12-09T13:12:56.943Z,62.81
2022-12-09T13:15:40.342Z,62.42
2022-12-09T13:18:16.795Z,61.75
2022-12-09T13:20:49.678Z,62.13
2022-12-09T13:23:21.977Z,62.49
2022-12-09T13:26:09.335Z,63.26
2022-12-09T13:29:13.419Z,62.83
2022-12-09T13:31:53.548Z,63.61
2022-12-09T13:34:36.985Z,64.25
2022-12-09T13:37:03.719Z,64.08
2022-12-09T13:39:39.120Z,63.88
2022-12-09T13:42:46.532Z,63.19
2022-12-09T13:45:39.434Z,63.05
2022-12-09T13:48:28.468Z,62.61
2022-12-09T13:50:59.385Z,62.45
2022-12-09T13:53:46.094Z,62.36
2022-12-09T13:56:16.162Z,62.34
2022-12-09T13:59:14.717Z,61.90
2022-12-09T14:01:50.451Z,61.82
2022-12-09T14:04:26.628Z,61.86
2022-12-09T14:07:14.810Z,62.56
2022-12-09T14:09:44.162Z,62.13
2022-12-09T14:12:14.321Z,62.33
2022-12-09T14:14:43.707Z,62.05
2022-12-09T14:17:26.647Z,62.02
2022-12-09T14:20:21.824Z,62.56
2022-12-09T14:23:06.470Z,63.34
2022-12-09T14:25:36.143Z,63.57
2022-12-09T14:28:11.678Z,63.99
2022-12-09T14:31:00.756Z,64.35
2022-12-09T14:33:31.316Z,64.40
2022-12-09T14:36:08.848Z,64.30
2022-12-09T14:42:12.410Z,64.52
2022-12-09T14:45:02.228Z,64.71
2022-12-09T14:47:32.296Z,64.74
2022-12-09T14:50:15.450Z,65.01
2022-12-09T14:53:01.011Z,65.55
2022-12-09T14:55:30.176Z,65.04
2022-12-09T14:57:59.863Z,65.69
2022-12-09T15:00:40.244Z,64.64
2022-12-09T15:03:44.500Z,65.40
2022-12-09T15:06:16.440Z,65.03
2022-12-09T15:08:42.941Z,64.83
2022-12-09T15:11:25.082Z,64.32
2022-12-09T15:13:53.903Z,64.27
2022-12-09T15:16:24.802Z,64.58
2022-12-09T15:18:52.926Z,63.99
2022-12-09T15:21:27.766Z,64.58
2022-12-09T15:23:54.953Z,64.24
2022-12-09T15:26:25.627Z,64.13
2022-12-09T15:28:55.882Z,64.35
2022-12-09T15:31:28.319Z,64.32
2022-12-09T15:33:57.713Z,64.27
2022-12-09T15:36:41.396Z,64.48
2022-12-09T15:39:33.723Z,64.83
2022-12-09T15:42:12.754Z,65.36
2022-12-09T15:44:53.383Z,65.69
2022-12-09T15:47:38.856Z,67.10
2022-12-09T15:50:21.288Z,67.67
2022-12-09T15:52:54.858Z,68.02
2022-12-09T15:55:32.132Z,68.19
2022-12-09T15:58:00.649Z,68.34
2022-12-09T16:00:27.255Z,68.75
2022-12-09T16:02:53.890Z,68.40
2022-12-09T16:05:23.932Z,68.17
2022-12-09T16:07:56.589Z,68.48
2022-12-09T16:10:26.545Z,68.64
2022-12-09T16:13:15.993Z,68.66
2022-12-09T16:15:52.721Z,68.72
2022-12-09T16:18:33.354Z,68.87
2022-12-09T16:21:15.002Z,68.37
2022-12-09T16:23:46.901Z,68.66
2022-12-09T16:26:35.214Z,68.06
2022-12-09T16:29:04.870Z,68.53
2022-12-09T16:31:31.557Z,69.24
2022-12-09T16:33:58.087Z,69.42
2022-12-09T16:36:27.467Z,69.97
2022-12-09T16:39:31.738Z,70.23
2022-12-09T16:42:01.575Z,70.62
2022-12-09T16:44:36.144Z,70.61
2022-12-09T16:47:16.006Z,70.59
2022-12-09T16:49:46.011Z,70.87
2022-12-09T16:52:24.077Z,70.96
2022-12-09T16:54:51.280Z,70.99
2022-12-09T16:57:20.115Z,71.30
2022-12-09T16:59:46.808Z,71.13
2022-12-09T17:02:38.942Z,70.79
2022-12-09T17:05:06.398Z,70.27
2022-12-09T17:07:33.131Z,70.81
2022-12-09T17:09:59.465Z,70.92
2022-12-09T17:12:25.907Z,70.77
2022-12-09T17:14:52.455Z,71.01
2022-12-09T17:17:18.950Z,70.86
2022-12-09T17:19:45.304Z,71.24
2022-12-09T17:22:11.793Z,70.90
2022-12-09T17:24:38.381Z,71.14
2022-12-09T17:27:04.696Z,71.27
2022-12-09T17:29:31.059Z,71.68
2022-12-09T17:31:57.467Z,71.27
2022-12-09T17:34:23.817Z,71.41
2022-12-09T17:36:50.242Z,71.12
2022-12-09T17:39:16.689Z,70.95
2022-12-09T17:41:43.014Z,71.29
2022-12-09T17:44:11.852Z,71.17
2022-12-09T17:46:38.319Z,71.56
2022-12-09T17:49:04.683Z,71.23
2022-12-09T17:51:35.916Z,70.98
2022-12-09T17:54:03.418Z,71.08
2022-12-09T17:56:29.810Z,71.23
2022-12-09T17:58:59.776Z,71.53
2022-12-09T18:01:29.477Z,71.81
2022-12-09T18:04:06.216Z,71.46
2022-12-09T18:06:35.822Z,70.36
2022-12-09T18:09:08.665Z,71.47
2022-12-09T18:11:35.760Z,71.23
2022-12-09T18:14:02.354Z,70.71
2022-12-09T18:16:28.938Z,70.66
2022-12-09T18:18:55.401Z,71.66
2022-12-09T18:21:22.004Z,71.68
2022-12-09T18:23:48.652Z,71.69
2022-12-09T18:26:18.636Z,71.23
2022-12-09T18:28:45.566Z,71.53
2022-12-09T18:31:18.920Z,71.74
2022-12-09T18:33:45.473Z,71.87
2022-12-09T18:36:15.378Z,71.57
2022-12-09T18:38:42.764Z,71.92
2022-12-09T18:41:20.019Z,72.04
2022-12-09T18:43:48.024Z,72.39
2022-12-09T18:46:21.393Z,72.53
2022-12-09T18:49:14.585Z,71.90
2022-12-09T18:51:43.201Z,71.63
2022-12-09T18:54:14.271Z,71.62
2022-12-09T18:56:40.704Z,71.50
2022-12-09T18:59:08.596Z,71.48
2022-12-09T19:01:39.736Z,71.49
2022-12-09T19:04:08.651Z,71.55
2022-12-09T19:06:37.321Z,71.11
2022-12-09T19:09:10.056Z,71.50
2022-12-09T19:11:37.964Z,71.89
2022-12-09T19:14:05.786Z,71.52
2022-12-09T19:16:32.903Z,71.91
2022-12-09T19:19:05.530Z,71.50
2022-12-09T19:21:35.422Z,71.45
2022-12-09T19:24:01.783Z,71.08
2022-12-09T19:26:30.587Z,71.44
2022-12-09T19:28:59.789Z,70.87
2022-12-09T19:31:37.807Z,71.12
2022-12-09T19:34:16.032Z,71.61
2022-12-09T19:36:43.526Z,72.08
2022-12-09T19:39:10.962Z,72.06
2022-12-09T19:41:38.318Z,72.17
2022-12-09T19:44:05.109Z,71.93
2022-12-09T19:46:32.570Z,71.57
2022-12-09T19:48:59.551Z,72.61
2022-12-09T19:51:27.285Z,72.15
2022-12-09T19:53:55.464Z,72.00
2022-12-09T19:56:23.013Z,71.74
2022-12-09T19:58:50.621Z,71.93
2022-12-09T20:01:25.956Z,71.97
2022-12-09T20:04:18.978Z,70.72
2022-12-09T20:06:51.038Z,71.69
2022-12-09T20:09:23.905Z,72.87
2022-12-09T20:11:51.428Z,73.01
2022-12-09T20:14:20.990Z,72.59
2022-12-09T20:16:47.539Z,73.22
2022-12-09T20:19:14.065Z,73.23
2022-12-09T20:21:40.609Z,73.60
2022-12-09T20:24:08.107Z,73.35
2022-12-09T20:26:36.755Z,73.85
2022-12-09T20:29:07.494Z,73.89
2022-12-09T20:31:36.151Z,73.13
2022-12-09T20:34:05.412Z,73.05
2022-12-09T20:36:34.174Z,72.82
2022-12-09T20:39:05.361Z,72.99
2022-12-09T20:41:33.292Z,72.56
2022-12-09T20:44:00.341Z,72.95
2022-12-09T20:46:29.283Z,72.56
2022-12-09T20:48:56.718Z,72.16
2022-12-09T20:51:31.738Z,72.22
2022-12-09T20:53:59.189Z,72.02
2022-12-09T20:56:27.806Z,72.23
2022-12-09T20:58:54.533Z,71.71
2022-12-09T21:01:24.305Z,72.34
2022-12-09T21:03:51.465Z,72.16
2022-12-09T21:06:20.538Z,72.07
2022-12-09T21:08:47.634Z,71.86
2022-12-09T21:11:17.551Z,71.60
2022-12-09T21:13:47.623Z,71.58
2022-12-09T21:16:22.293Z,71.51
2022-12-09T21:18:50.698Z,71.86
2022-12-09T21:21:19.133Z,71.98
2022-12-09T21:23:46.005Z,71.26
2022-12-09T21:26:15.630Z,70.99
2022-12-09T21:28:43.294Z,71.44
2022-12-09T21:31:15.727Z,71.81
2022-12-09T21:33:44.121Z,72.31
2022-12-09T21:36:13.407Z,71.38
2022-12-09T21:38:39.754Z,71.06
2022-12-09T21:41:09.274Z,71.80
2022-12-09T21:43:37.006Z,70.92
2022-12-09T21:46:08.474Z,71.10
2022-12-09T21:48:35.737Z,71.64
2022-12-09T21:51:02.772Z,71.82
2022-12-09T21:53:31.438Z,71.71
2022-12-09T21:56:02.987Z,71.58
2022-12-09T21:58:31.391Z,71.39
2022-12-09T22:00:58.286Z,71.54
2022-12-09T22:03:25.369Z,71.63
2022-12-09T22:05:58.023Z,71.90
2022-12-09T22:08:24.711Z,71.94
2022-12-09T22:10:51.081Z,71.33
2022-12-09T22:13:17.396Z,71.44
2022-12-09T22:15:43.764Z,71.29
2022-12-09T22:18:10.119Z,71.79
2022-12-09T22:23:22.782Z,71.20
2022-12-09T22:25:49.096Z,72.02
2022-12-09T22:28:15.418Z,72.13
2022-12-09T22:30:41.804Z,72.97
2022-12-09T22:33:08.161Z,73.15
2022-12-09T22:35:34.604Z,72.81
2022-12-09T22:38:02.195Z,72.47
2022-12-09T22:40:31.772Z,72.40
2022-12-09T22:42:58.085Z,71.97
2022-12-09T22:45:24.571Z,71.74
2022-12-09T22:47:51.174Z,71.80
2022-12-09T22:50:17.511Z,71.47
2022-12-09T22:52:43.877Z,71.41
2022-12-09T22:55:10.263Z,71.58
2022-12-09T22:57:36.587Z,71.32
2022-12-09T23:00:05.381Z,71.47
2022-12-09T23:02:33.087Z,70.91
2022-12-09T23:04:59.492Z,70.45
2022-12-09T23:07:26.182Z,70.85
2022-12-09T23:09:52.569Z,71.18
2022-12-09T23:12:18.920Z,71.30
2022-12-09T23:14:45.275Z,71.04
2022-12-09T23:17:11.687Z,71.64
2022-12-09T23:19:38.013Z,72.01
2022-12-09T23:22:04.562Z,71.56
2022-12-09T23:24:30.953Z,71.32
2022-12-09T23:26:57.347Z,71.53
2022-12-09T23:29:23.963Z,71.79
2022-12-09T23:31:50.940Z,71.06
2022-12-09T23:34:17.800Z,72.32
2022-12-09T23:36:45.644Z,72.04
2022-12-09T23:39:15.591Z,73.05
2022-12-09T23:41:43.058Z,72.99
2022-12-09T23:44:16.196Z,72.66
2022-12-09T23:46:43.269Z,72.62
2022-12-09T23:49:09.709Z,72.27
2022-12-09T23:51:39.418Z,72.55
2022-12-09T23:54:07.492Z,71.78
2022-12-09T23:56:38.587Z,71.58
2022-12-09T23:59:08.310Z,72.19
